createdAt,value
2023-01-08T00:01:13.051Z,2.40
2023-01-08T00:03:49.347Z,2.40
2023-01-08T00:06:19.372Z,2.40
2023-01-08T00:08:46.459Z,2.40
2023-01-08T00:11:14.878Z,2.40
2023-01-08T00:13:42.200Z,2.40
2023-01-08T00:16:15.298Z,2.40
2023-01-08T00:18:43.219Z,2.40
2023-01-08T00:21:11.512Z,2.40
2023-01-08T00:23:38.891Z,2.30
2023-01-08T00:26:09.049Z,2.30
2023-01-08T00:28:37.115Z,2.30
2023-01-08T00:31:05.821Z,2.30
2023-01-08T00:33:33.264Z,2.30
2023-01-08T00:36:06.306Z,2.50
2023-01-08T00:38:33.360Z,2.20
2023-01-08T00:41:00.764Z,2.20
2023-01-08T00:43:27.785Z,2.60
2023-01-08T00:45:55.529Z,2.20
2023-01-08T00:48:23.149Z,2.20
2023-01-08T00:50:51.589Z,2.20
2023-01-08T00:53:22.521Z,2.20
2023-01-08T00:55:49.926Z,2.20
2023-01-08T00:58:16.952Z,2.20
2023-01-08T01:00:44.334Z,2.20
2023-01-08T01:03:11.358Z,2.20
2023-01-08T01:05:38.682Z,2.20
2023-01-08T01:08:05.720Z,2.30
2023-01-08T01:10:33.152Z,2.20
2023-01-08T01:13:00.151Z,2.20
2023-01-08T01:15:27.486Z,2.20
2023-01-08T01:17:54.510Z,2.20
2023-01-08T01:20:23.725Z,2.20
2023-01-08T01:22:51.049Z,3.50
2023-01-08T01:25:18.505Z,2.20
2023-01-08T01:27:45.504Z,2.20
2023-01-08T01:30:13.072Z,2.30
2023-01-08T01:32:40.135Z,2.20
2023-01-08T01:35:08.213Z,2.30
2023-01-08T01:37:35.231Z,2.20
2023-01-08T01:40:02.948Z,2.30
2023-01-08T01:42:41.841Z,2.30
2023-01-08T01:45:24.207Z,2.20
2023-01-08T01:48:06.699Z,2.30
2023-01-08T01:50:41.257Z,2.30
2023-01-08T01:53:15.138Z,2.30
2023-01-08T01:55:43.808Z,2.30
2023-01-08T01:58:13.270Z,2.40
2023-01-08T02:00:41.383Z,2.30
2023-01-08T02:03:11.185Z,2.30
2023-01-08T02:06:17.203Z,2.30
2023-01-08T02:08:50.161Z,2.30
2023-01-08T02:11:21.206Z,2.30
2023-01-08T02:13:58.353Z,2.30
2023-01-08T02:16:53.215Z,2.40
2023-01-08T02:19:56.924Z,2.40
2023-01-08T02:22:32.284Z,2.40
2023-01-08T02:25:07.929Z,2.40
2023-01-08T02:27:37.725Z,2.40
2023-01-08T02:30:06.314Z,2.40
2023-01-08T02:32:37.048Z,2.40
2023-01-08T02:35:05.937Z,3.70
2023-01-08T02:37:33.719Z,2.50
2023-01-08T02:40:09.946Z,2.50
2023-01-08T02:43:00.390Z,2.50
2023-01-08T02:45:39.325Z,2.50
2023-01-08T02:48:19.263Z,2.50
2023-01-08T02:51:10.627Z,2.50
2023-01-08T02:53:42.188Z,2.50
2023-01-08T02:56:13.531Z,2.50
2023-01-08T02:58:43.011Z,2.50
2023-01-08T03:01:12.878Z,4.40
2023-01-08T03:03:43.487Z,2.50
2023-01-08T03:06:16.097Z,2.60
2023-01-08T03:08:47.095Z,2.60
2023-01-08T03:11:17.381Z,2.60
2023-01-08T03:13:58.327Z,2.60
2023-01-08T03:16:32.120Z,2.60
2023-01-08T03:19:09.773Z,2.60
2023-01-08T03:21:37.853Z,2.70
2023-01-08T03:24:06.629Z,2.60
2023-01-08T03:26:37.619Z,2.70
2023-01-08T03:29:06.639Z,2.60
2023-01-08T03:31:35.941Z,2.70
2023-01-08T03:34:05.154Z,2.70
2023-01-08T03:36:34.892Z,2.70
2023-01-08T03:39:19.359Z,3.00
2023-01-08T03:41:48.390Z,2.70
2023-01-08T03:44:16.470Z,2.70
2023-01-08T03:46:48.921Z,2.70
2023-01-08T03:49:16.912Z,2.70
2023-01-08T03:51:46.849Z,2.70
2023-01-08T03:54:17.780Z,2.70
2023-01-08T03:56:45.029Z,2.70
2023-01-08T03:59:13.574Z,3.30
2023-01-08T04:01:41.050Z,2.70
2023-01-08T04:04:10.780Z,2.70
2023-01-08T04:06:37.979Z,2.70
2023-01-08T04:09:05.332Z,2.70
2023-01-08T04:11:32.530Z,2.70
2023-01-08T04:13:59.891Z,2.70
2023-01-08T04:16:27.070Z,2.70
2023-01-08T04:18:54.397Z,2.70
2023-01-08T04:21:21.503Z,2.70
2023-01-08T04:23:48.835Z,2.70
2023-01-08T04:26:15.957Z,2.70
2023-01-08T04:28:43.223Z,2.70
2023-01-08T04:31:10.759Z,2.70
2023-01-08T04:33:38.278Z,2.70
2023-01-08T04:36:05.977Z,2.70
2023-01-08T04:38:33.337Z,2.70
2023-01-08T04:41:01.730Z,2.70
2023-01-08T04:43:30.743Z,2.80
2023-01-08T04:46:02.643Z,2.70
2023-01-08T04:48:30.836Z,2.70
2023-01-08T04:51:00.152Z,2.70
2023-01-08T04:53:33.647Z,2.70
2023-01-08T04:56:06.277Z,2.60
2023-01-08T04:58:34.923Z,2.70
2023-01-08T05:01:02.049Z,2.70
2023-01-08T05:03:29.456Z,2.70
2023-01-08T05:05:56.535Z,2.70
2023-01-08T05:08:23.871Z,2.60
2023-01-08T05:10:50.881Z,2.60
2023-01-08T05:13:18.167Z,2.60
2023-01-08T05:15:45.222Z,2.60
2023-01-08T05:18:12.573Z,2.50
2023-01-08T05:20:39.616Z,2.50
2023-01-08T05:23:06.984Z,2.40
2023-01-08T05:25:35.112Z,2.10
2023-01-08T05:28:02.473Z,2.30
2023-01-08T05:30:29.668Z,2.30
2023-01-08T05:32:57.037Z,2.20
2023-01-08T05:35:24.024Z,2.20
2023-01-08T05:37:51.443Z,2.10
2023-01-08T05:40:18.641Z,2.10
2023-01-08T05:42:46.013Z,2.10
2023-01-08T05:45:13.106Z,2.00
2023-01-08T05:47:40.519Z,2.00
2023-01-08T05:50:07.991Z,2.00
2023-01-08T05:52:35.633Z,2.00
2023-01-08T05:55:02.776Z,1.90
2023-01-08T05:57:30.060Z,1.90
2023-01-08T05:59:57.274Z,1.90
2023-01-08T06:02:24.626Z,1.90
2023-01-08T06:04:51.738Z,1.90
2023-01-08T06:07:19.138Z,1.90
2023-01-08T06:09:46.190Z,2.00
2023-01-08T06:12:13.623Z,2.00
2023-01-08T06:14:40.679Z,2.00
2023-01-08T06:17:08.093Z,2.10
2023-01-08T06:19:35.106Z,2.10
2023-01-08T06:22:02.611Z,2.10
2023-01-08T06:24:29.637Z,2.20
2023-01-08T06:26:56.975Z,2.20
2023-01-08T06:29:24.874Z,2.20
2023-01-08T06:31:52.224Z,2.30
2023-01-08T06:34:19.463Z,2.30
2023-01-08T06:36:48.742Z,2.40
2023-01-08T06:39:15.747Z,2.40
2023-01-08T06:41:43.733Z,2.40
2023-01-08T06:44:10.902Z,2.40
2023-01-08T06:46:40.328Z,2.40
2023-01-08T06:49:08.063Z,2.50
2023-01-08T06:51:36.048Z,2.40
2023-01-08T06:54:03.460Z,2.40
2023-01-08T06:56:30.867Z,2.40
2023-01-08T06:58:58.000Z,2.30
2023-01-08T07:01:25.327Z,2.30
2023-01-08T07:03:52.564Z,2.30
2023-01-08T07:06:22.639Z,2.30
2023-01-08T07:08:49.936Z,2.30
2023-01-08T07:11:17.513Z,2.30
2023-01-08T07:13:44.548Z,2.30
2023-01-08T07:16:14.377Z,2.30
2023-01-08T07:18:42.810Z,2.30
2023-01-08T07:21:10.309Z,2.30
2023-01-08T07:23:38.405Z,2.30
2023-01-08T07:26:07.784Z,2.30
2023-01-08T07:28:35.223Z,2.30
2023-01-08T07:31:04.667Z,2.30
2023-01-08T07:33:31.939Z,2.30
2023-01-08T07:35:59.398Z,2.30
2023-01-08T07:38:26.807Z,2.30
2023-01-08T07:40:54.290Z,2.30
2023-01-08T07:43:21.397Z,2.30
2023-01-08T07:45:48.805Z,2.80
2023-01-08T07:48:16.519Z,2.30
2023-01-08T07:50:44.712Z,2.30
2023-01-08T07:53:13.738Z,2.30
2023-01-08T07:55:41.144Z,2.30
2023-01-08T07:58:12.404Z,2.40
2023-01-08T08:00:40.055Z,2.40
2023-01-08T08:03:11.398Z,2.40
2023-01-08T08:05:39.558Z,2.40
2023-01-08T08:08:11.698Z,2.40
2023-01-08T08:10:40.427Z,2.40
2023-01-08T08:13:07.857Z,2.40
2023-01-08T08:15:36.241Z,2.40
2023-01-08T08:18:04.075Z,2.50
2023-01-08T08:20:31.804Z,2.50
2023-01-08T08:23:10.771Z,2.50
2023-01-08T08:25:38.158Z,2.50
2023-01-08T08:28:05.721Z,2.60
2023-01-08T08:30:34.461Z,2.50
2023-01-08T08:33:04.017Z,2.50
2023-01-08T08:35:32.676Z,2.60
2023-01-08T08:38:00.127Z,3.70
2023-01-08T08:40:28.866Z,2.60
2023-01-08T08:43:00.559Z,2.70
2023-01-08T08:45:28.638Z,2.70
2023-01-08T08:47:55.873Z,2.80
2023-01-08T08:50:23.358Z,2.80
2023-01-08T08:52:50.374Z,2.80
2023-01-08T08:55:17.860Z,2.90
2023-01-08T08:57:46.559Z,2.90
2023-01-08T09:00:15.421Z,2.90
2023-01-08T09:02:42.892Z,3.00
2023-01-08T09:05:11.478Z,3.00
2023-01-08T09:07:38.819Z,3.10
2023-01-08T09:10:06.862Z,3.00
2023-01-08T09:12:33.865Z,3.10
2023-01-08T09:15:01.201Z,3.10
2023-01-08T09:17:28.271Z,3.20
2023-01-08T09:19:55.580Z,3.20
2023-01-08T09:22:22.740Z,3.20
2023-01-08T09:24:50.156Z,3.20
2023-01-08T09:27:17.339Z,3.20
2023-01-08T09:29:44.682Z,3.20
2023-01-08T09:32:11.693Z,3.20
2023-01-08T09:34:39.183Z,3.20
2023-01-08T09:37:06.775Z,3.20
2023-01-08T09:39:36.029Z,3.20
2023-01-08T09:42:05.670Z,3.20
2023-01-08T09:44:43.124Z,3.20
2023-01-08T09:47:26.742Z,3.20
2023-01-08T09:49:58.446Z,3.20
2023-01-08T09:52:25.775Z,3.20
2023-01-08T09:54:53.293Z,3.20
2023-01-08T09:57:23.837Z,3.30
2023-01-08T09:59:51.375Z,3.30
2023-01-08T10:02:24.908Z,3.30
2023-01-08T10:05:00.762Z,3.40
2023-01-08T10:07:30.547Z,3.40
2023-01-08T10:09:57.936Z,3.50
2023-01-08T10:12:31.228Z,3.50
2023-01-08T10:15:12.155Z,3.50
2023-01-08T10:17:41.591Z,3.50
2023-01-08T10:20:14.360Z,3.50
2023-01-08T10:22:42.378Z,3.50
2023-01-08T10:25:16.651Z,3.60
2023-01-08T10:27:50.052Z,3.90
2023-01-08T10:30:23.175Z,3.50
2023-01-08T10:32:56.092Z,3.70
2023-01-08T10:35:39.660Z,3.70
2023-01-08T10:38:07.612Z,4.30
2023-01-08T10:40:42.154Z,3.80
2023-01-08T10:43:14.828Z,3.80
2023-01-08T10:45:44.082Z,4.00
2023-01-08T10:48:18.321Z,3.90
2023-01-08T10:50:45.659Z,3.90
2023-01-08T10:53:28.567Z,3.90
2023-01-08T10:56:04.006Z,3.90
2023-01-08T10:58:41.575Z,3.90
2023-01-08T11:01:19.505Z,3.90
2023-01-08T11:03:51.742Z,3.90
2023-01-08T11:06:34.509Z,3.90
2023-01-08T11:09:04.841Z,3.90
2023-01-08T11:11:37.071Z,3.90
2023-01-08T11:14:27.928Z,4.00
2023-01-08T11:16:56.627Z,4.00
2023-01-08T11:19:32.073Z,4.10
2023-01-08T11:22:01.871Z,4.10
2023-01-08T11:24:33.394Z,4.10
2023-01-08T11:27:12.601Z,4.10
2023-01-08T11:29:51.032Z,4.20
2023-01-08T11:32:27.172Z,4.40
2023-01-08T11:34:57.018Z,4.20
2023-01-08T11:37:33.630Z,4.20
2023-01-08T11:40:00.907Z,4.20
2023-01-08T11:42:42.533Z,6.60
2023-01-08T11:45:12.590Z,4.20
2023-01-08T11:47:48.701Z,4.20
2023-01-08T11:50:39.811Z,4.20
2023-01-08T11:53:13.035Z,4.10
2023-01-08T11:55:58.459Z,4.10
2023-01-08T11:58:51.284Z,4.10
2023-01-08T12:01:42.413Z,4.10
2023-01-08T12:04:34.103Z,4.10
2023-01-08T12:07:20.229Z,4.10
2023-01-08T12:09:56.899Z,3.90
2023-01-08T12:12:42.964Z,3.90
2023-01-08T12:15:16.510Z,3.90
2023-01-08T12:18:00.841Z,3.90
2023-01-08T12:20:48.189Z,3.90
2023-01-08T12:23:21.555Z,3.80
2023-01-08T12:26:10.665Z,3.80
2023-01-08T12:29:04.530Z,3.80
2023-01-08T12:31:57.655Z,3.70
2023-01-08T12:34:54.414Z,3.70
2023-01-08T12:37:25.126Z,3.60
2023-01-08T12:40:13.597Z,3.40
2023-01-08T12:42:47.261Z,3.50
2023-01-08T12:45:24.468Z,3.50
2023-01-08T12:47:59.010Z,3.40
2023-01-08T12:50:56.726Z,4.30
2023-01-08T12:53:27.088Z,3.40
2023-01-08T12:56:18.324Z,3.30
2023-01-08T12:59:11.431Z,3.30
2023-01-08T13:01:49.564Z,3.30
2023-01-08T13:04:17.463Z,3.30
2023-01-08T13:07:16.462Z,3.20
2023-01-08T13:09:44.426Z,3.20
2023-01-08T13:12:15.936Z,3.20
2023-01-08T13:14:49.107Z,3.10
2023-01-08T13:17:22.165Z,3.10
2023-01-08T13:19:55.717Z,3.10
2023-01-08T13:22:27.347Z,3.10
2023-01-08T13:25:15.545Z,3.00
2023-01-08T13:27:44.145Z,3.00
2023-01-08T13:30:33.498Z,3.00
2023-01-08T13:33:01.466Z,2.90
2023-01-08T13:35:31.497Z,2.90
2023-01-08T13:38:10.719Z,2.90
2023-01-08T13:40:44.382Z,2.80
2023-01-08T13:43:25.007Z,2.80
2023-01-08T13:45:58.381Z,2.70
2023-01-08T13:48:28.712Z,2.70
2023-01-08T13:50:56.626Z,2.70
2023-01-08T13:53:24.462Z,2.60
2023-01-08T13:56:05.342Z,2.60
2023-01-08T13:58:51.399Z,2.50
2023-01-08T14:01:20.037Z,2.50
2023-01-08T14:03:48.626Z,2.40
2023-01-08T14:06:22.938Z,3.10
2023-01-08T14:09:01.745Z,2.30
2023-01-08T14:11:43.334Z,2.30
2023-01-08T14:14:15.311Z,2.30
2023-01-08T14:16:43.160Z,2.20
2023-01-08T14:19:16.350Z,2.20
2023-01-08T14:21:51.668Z,2.20
2023-01-08T14:24:20.296Z,2.20
2023-01-08T14:26:58.893Z,2.20
2023-01-08T14:29:29.941Z,2.10
2023-01-08T14:32:00.317Z,2.10
2023-01-08T14:34:30.406Z,2.10
2023-01-08T14:36:58.323Z,2.10
2023-01-08T14:39:31.276Z,2.00
2023-01-08T14:42:25.169Z,2.00
2023-01-08T14:45:15.459Z,2.00
2023-01-08T14:47:49.338Z,2.00
2023-01-08T14:50:20.255Z,1.90
2023-01-08T14:52:48.445Z,1.90
2023-01-08T14:55:19.350Z,1.90
2023-01-08T14:57:48.336Z,1.90
2023-01-08T15:00:22.015Z,1.90
2023-01-08T15:02:49.953Z,1.90
2023-01-08T15:05:21.458Z,1.90
2023-01-08T15:08:04.327Z,1.90
2023-01-08T15:10:41.030Z,1.90
2023-01-08T15:13:30.480Z,1.80
2023-01-08T15:16:05.819Z,1.80
2023-01-08T15:18:41.324Z,1.90
2023-01-08T15:21:09.308Z,1.80
2023-01-08T15:23:42.057Z,1.80
2023-01-08T15:26:11.977Z,1.80
2023-01-08T15:28:45.996Z,2.00
2023-01-08T15:31:25.572Z,1.80
2023-01-08T15:33:52.840Z,1.80
2023-01-08T15:36:21.378Z,1.70
2023-01-08T15:38:49.951Z,1.70
2023-01-08T15:41:40.699Z,1.70
2023-01-08T15:44:10.474Z,1.70
2023-01-08T15:46:37.599Z,1.70
2023-01-08T15:49:05.526Z,1.70
2023-01-08T15:51:34.645Z,1.70
2023-01-08T15:54:02.783Z,1.70
2023-01-08T15:56:30.055Z,1.70
2023-01-08T15:58:57.444Z,1.70
2023-01-08T16:01:27.649Z,1.70
2023-01-08T16:03:55.136Z,1.60
2023-01-08T16:06:22.188Z,1.60
2023-01-08T16:08:49.814Z,1.60
2023-01-08T16:11:17.933Z,1.60
2023-01-08T16:13:46.049Z,1.60
2023-01-08T16:16:15.510Z,1.60
2023-01-08T16:18:43.399Z,1.70
2023-01-08T16:21:11.409Z,1.60
2023-01-08T16:23:40.236Z,1.70
2023-01-08T16:26:09.088Z,2.90
2023-01-08T16:28:36.557Z,1.70
2023-01-08T16:31:04.264Z,2.70
2023-01-08T16:33:31.701Z,1.70
2023-01-08T16:36:01.266Z,1.70
2023-01-08T16:38:29.463Z,1.70
2023-01-08T16:40:57.205Z,1.80
2023-01-08T16:43:26.182Z,1.80
2023-01-08T16:45:54.501Z,2.80
2023-01-08T16:48:23.384Z,1.80
2023-01-08T16:50:50.556Z,1.80
2023-01-08T16:53:17.944Z,1.80
2023-01-08T16:55:45.016Z,2.60
2023-01-08T16:58:12.472Z,1.80
2023-01-08T17:00:40.464Z,1.80
2023-01-08T17:03:07.830Z,1.80
2023-01-08T17:05:36.893Z,1.80
2023-01-08T17:08:04.911Z,1.80
2023-01-08T17:10:33.881Z,1.80
2023-01-08T17:13:01.253Z,1.80
2023-01-08T17:15:28.393Z,1.90
2023-01-08T17:17:55.878Z,1.80
2023-01-08T17:20:23.933Z,1.90
2023-01-08T17:22:51.710Z,1.90
2023-01-08T17:25:18.814Z,1.90
2023-01-08T17:27:46.242Z,1.90
2023-01-08T17:30:15.002Z,1.90
2023-01-08T17:32:42.593Z,1.90
2023-01-08T17:35:09.865Z,1.90
2023-01-08T17:37:37.232Z,1.90
2023-01-08T17:40:05.618Z,1.90
2023-01-08T17:42:33.014Z,1.90
2023-01-08T17:45:03.022Z,1.90
2023-01-08T17:47:31.370Z,1.90
2023-01-08T17:49:58.376Z,1.90
2023-01-08T17:52:26.177Z,1.90
2023-01-08T17:54:53.595Z,1.90
2023-01-08T17:57:21.921Z,1.90
2023-01-08T17:59:49.263Z,1.80
2023-01-08T18:02:17.793Z,1.90
2023-01-08T18:04:45.721Z,1.90
2023-01-08T18:07:15.439Z,2.00
2023-01-08T18:09:42.637Z,2.00
2023-01-08T18:12:10.248Z,2.00
2023-01-08T18:14:39.080Z,2.00
2023-01-08T18:17:06.472Z,2.00
2023-01-08T18:19:33.874Z,2.00
2023-01-08T18:22:01.262Z,2.00
2023-01-08T18:24:28.471Z,2.00
2023-01-08T18:26:55.811Z,2.00
2023-01-08T18:29:22.860Z,2.10
2023-01-08T18:31:50.290Z,2.00
2023-01-08T18:34:17.396Z,2.00
2023-01-08T18:36:47.639Z,2.00
2023-01-08T18:39:14.761Z,2.00
2023-01-08T18:42:00.694Z,2.00
2023-01-08T18:44:28.043Z,2.00
2023-01-08T18:46:55.474Z,2.00
2023-01-08T18:49:23.583Z,2.00
2023-01-08T18:51:50.976Z,2.00
2023-01-08T18:54:18.082Z,2.00
2023-01-08T18:56:46.549Z,2.00
2023-01-08T18:59:13.717Z,2.00
2023-01-08T19:01:41.617Z,2.00
2023-01-08T19:04:15.651Z,2.00
2023-01-08T19:06:43.141Z,2.00
2023-01-08T19:09:10.418Z,2.00
2023-01-08T19:11:37.780Z,2.10
2023-01-08T19:14:05.145Z,2.10
2023-01-08T19:16:32.530Z,2.10
2023-01-08T19:18:59.833Z,2.10
2023-01-08T19:21:29.419Z,2.10
2023-01-08T19:23:56.613Z,2.10
2023-01-08T19:26:24.250Z,2.10
2023-01-08T19:28:51.302Z,2.10
2023-01-08T19:31:19.009Z,2.10
2023-01-08T19:33:46.803Z,2.20
2023-01-08T19:36:16.504Z,3.80
2023-01-08T19:38:44.492Z,3.30
2023-01-08T19:41:31.292Z,2.20
2023-01-08T19:43:59.259Z,2.20
2023-01-08T19:46:27.456Z,2.20
2023-01-08T19:49:01.463Z,2.20
2023-01-08T19:51:32.926Z,2.20
2023-01-08T19:54:01.019Z,2.20
2023-01-08T19:56:29.527Z,2.20
2023-01-08T19:58:57.439Z,2.60
2023-01-08T20:01:26.923Z,2.20
2023-01-08T20:03:55.107Z,2.20
2023-01-08T20:06:24.886Z,2.30
2023-01-08T20:08:55.957Z,2.30
2023-01-08T20:11:23.815Z,2.30
2023-01-08T20:13:51.736Z,2.30
2023-01-08T20:16:21.287Z,2.30
2023-01-08T20:18:48.882Z,2.30
2023-01-08T20:21:21.675Z,2.30
2023-01-08T20:23:53.396Z,2.30
2023-01-08T20:26:20.943Z,2.30
2023-01-08T20:28:49.282Z,2.30
2023-01-08T20:31:19.036Z,2.40
2023-01-08T20:33:46.954Z,2.40
2023-01-08T20:36:17.564Z,2.40
2023-01-08T20:38:45.460Z,2.40
2023-01-08T20:41:13.123Z,2.40
2023-01-08T20:43:41.038Z,2.40
2023-01-08T20:46:14.725Z,2.40
2023-01-08T20:48:47.863Z,2.90
2023-01-08T20:51:16.235Z,2.40
2023-01-08T20:53:43.509Z,2.50
2023-01-08T20:56:13.970Z,2.50
2023-01-08T20:58:44.378Z,2.50
2023-01-08T21:01:14.998Z,2.50
2023-01-08T21:03:43.482Z,3.30
2023-01-08T21:06:13.757Z,3.10
2023-01-08T21:08:42.115Z,2.60
2023-01-08T21:11:11.023Z,2.60
2023-01-08T21:13:39.049Z,2.60
2023-01-08T21:16:11.655Z,2.60
2023-01-08T21:18:43.885Z,2.60
2023-01-08T21:21:12.282Z,2.60
2023-01-08T21:23:39.267Z,2.60
2023-01-08T21:26:09.925Z,2.60
2023-01-08T21:28:38.312Z,2.60
2023-01-08T21:31:12.946Z,2.60
2023-01-08T21:33:40.637Z,2.60
2023-01-08T21:36:12.123Z,2.60
2023-01-08T21:38:39.655Z,2.50
2023-01-08T21:41:32.927Z,2.60
2023-01-08T21:44:19.392Z,2.60
2023-01-08T21:46:47.027Z,2.50
2023-01-08T21:49:14.508Z,2.60
2023-01-08T21:52:00.291Z,2.70
2023-01-08T21:54:27.357Z,2.60
2023-01-08T21:56:54.748Z,2.60
2023-01-08T21:59:21.769Z,2.60
2023-01-08T22:01:49.303Z,2.60
2023-01-08T22:04:16.620Z,2.60
2023-01-08T22:06:43.961Z,2.60
2023-01-08T22:09:11.112Z,2.60
2023-01-08T22:11:38.429Z,2.60
2023-01-08T22:14:05.540Z,2.70
2023-01-08T22:16:33.071Z,2.60
2023-01-08T22:19:00.249Z,2.60
2023-01-08T22:21:27.627Z,2.60
2023-01-08T22:23:56.489Z,2.60
2023-01-08T22:26:24.464Z,2.60
2023-01-08T22:28:51.606Z,2.60
2023-01-08T22:31:19.282Z,2.60
2023-01-08T22:33:46.448Z,2.60
2023-01-08T22:36:14.872Z,2.60
2023-01-08T22:38:41.990Z,2.60
2023-01-08T22:41:17.778Z,2.60
2023-01-08T22:43:45.009Z,2.70
2023-01-08T22:46:15.183Z,2.70
2023-01-08T22:48:43.852Z,2.60
2023-01-08T22:51:11.978Z,2.70
2023-01-08T22:53:39.221Z,2.60
2023-01-08T22:56:12.174Z,2.60
2023-01-08T22:58:41.571Z,4.00
2023-01-08T23:01:18.381Z,2.70
2023-01-08T23:03:49.108Z,2.60
2023-01-08T23:06:18.746Z,2.70
2023-01-08T23:08:46.690Z,2.70
2023-01-08T23:11:16.795Z,2.70
2023-01-08T23:13:44.492Z,2.70
2023-01-08T23:16:14.721Z,3.70
2023-01-08T23:18:42.595Z,2.70
2023-01-08T23:21:13.065Z,2.70
2023-01-08T23:23:40.474Z,2.70
2023-01-08T23:26:13.971Z,2.70
2023-01-08T23:28:41.020Z,2.70
2023-01-08T23:31:09.982Z,2.70
2023-01-08T23:33:37.135Z,2.70
2023-01-08T23:36:05.462Z,2.70
2023-01-08T23:38:32.805Z,2.70
2023-01-08T23:41:00.717Z,2.70
2023-01-08T23:43:27.754Z,2.70
2023-01-08T23:45:55.776Z,2.70
2023-01-08T23:48:22.856Z,2.70
2023-01-08T23:50:50.414Z,2.70
2023-01-08T23:53:17.539Z,2.80
2023-01-08T23:55:44.832Z,2.80
2023-01-08T23:58:11.954Z,2.80
